createdAt,value
2022-11-29T00:01:01.834Z,3.80
2022-11-29T00:03:29.232Z,3.80
2022-11-29T00:05:56.503Z,3.80
2022-11-29T00:08:23.866Z,3.80
2022-11-29T00:10:50.932Z,3.80
2022-11-29T00:13:17.916Z,3.80
2022-11-29T00:15:44.796Z,3.80
2022-11-29T00:18:11.648Z,3.80
2022-11-29T00:20:39.347Z,3.70
2022-11-29T00:23:06.391Z,3.70
2022-11-29T00:25:33.309Z,3.70
2022-11-29T00:28:00.144Z,3.70
2022-11-29T00:30:27.987Z,3.70
2022-11-29T00:32:55.020Z,3.70
2022-11-29T00:35:21.998Z,3.70
2022-11-29T00:37:48.832Z,3.70
2022-11-29T00:40:15.768Z,3.70
2022-11-29T00:42:42.823Z,3.70
2022-11-29T00:45:10.096Z,3.70
2022-11-29T00:47:37.263Z,3.70
2022-11-29T00:50:04.600Z,3.70
2022-11-29T00:52:31.971Z,3.70
2022-11-29T00:54:58.883Z,3.70
2022-11-29T00:57:25.765Z,3.60
2022-11-29T00:59:52.594Z,3.60
2022-11-29T01:02:19.431Z,3.60
2022-11-29T01:04:46.654Z,3.60
2022-11-29T01:07:13.739Z,3.60
2022-11-29T01:09:40.999Z,3.50
2022-11-29T01:12:07.924Z,3.60
2022-11-29T01:14:34.837Z,3.60
2022-11-29T01:17:01.792Z,3.60
2022-11-29T01:19:28.660Z,3.60
2022-11-29T01:21:55.456Z,3.60
2022-11-29T01:24:22.822Z,3.60
2022-11-29T01:26:49.677Z,3.50
2022-11-29T01:29:16.924Z,3.50
2022-11-29T01:31:43.749Z,3.50
2022-11-29T01:34:10.692Z,3.50
2022-11-29T01:36:37.535Z,3.50
2022-11-29T01:39:05.371Z,3.60
2022-11-29T01:41:33.323Z,3.50
2022-11-29T01:44:00.165Z,3.60
2022-11-29T01:46:28.159Z,3.60
2022-11-29T01:48:57.587Z,3.60
2022-11-29T01:51:25.419Z,3.60
2022-11-29T01:53:52.261Z,3.60
2022-11-29T01:56:19.076Z,3.60
2022-11-29T01:58:46.241Z,3.60
2022-11-29T02:01:14.435Z,3.60
2022-11-29T02:03:41.514Z,3.50
2022-11-29T02:06:08.793Z,3.60
2022-11-29T02:08:40.914Z,3.60
2022-11-29T02:11:13.826Z,3.60
2022-11-29T02:13:47.744Z,3.50
2022-11-29T02:16:23.699Z,3.50
2022-11-29T02:18:53.593Z,3.50
2022-11-29T02:21:38.736Z,3.60
2022-11-29T02:24:08.353Z,3.60
2022-11-29T02:26:50.350Z,3.60
2022-11-29T02:29:32.168Z,3.60
2022-11-29T02:32:07.293Z,3.60
2022-11-29T02:34:46.830Z,3.60
2022-11-29T02:37:16.595Z,3.60
2022-11-29T02:40:02.307Z,3.60
2022-11-29T02:42:29.142Z,3.60
2022-11-29T02:45:05.255Z,3.60
2022-11-29T02:47:44.223Z,3.60
2022-11-29T02:50:14.141Z,3.60
2022-11-29T02:52:59.047Z,3.60
2022-11-29T02:55:33.789Z,3.60
2022-11-29T02:58:00.529Z,3.50
2022-11-29T03:00:28.077Z,3.50
2022-11-29T03:03:02.511Z,3.50
2022-11-29T03:05:35.525Z,3.50
2022-11-29T03:08:15.431Z,3.50
2022-11-29T03:11:00.915Z,3.50
2022-11-29T03:13:57.278Z,3.60
2022-11-29T03:16:24.049Z,3.60
2022-11-29T03:18:59.983Z,3.60
2022-11-29T03:21:48.845Z,3.60
2022-11-29T03:24:35.860Z,3.60
2022-11-29T03:27:05.995Z,3.70
2022-11-29T03:29:34.949Z,3.60
2022-11-29T03:32:12.568Z,3.60
2022-11-29T03:34:57.340Z,3.60
2022-11-29T03:37:38.176Z,3.60
2022-11-29T03:40:08.895Z,3.60
2022-11-29T03:42:43.532Z,3.60
2022-11-29T03:45:25.422Z,3.60
2022-11-29T03:47:59.677Z,3.60
2022-11-29T03:50:32.460Z,3.60
2022-11-29T03:53:02.721Z,3.50
2022-11-29T03:55:32.955Z,3.50
2022-11-29T03:58:14.080Z,3.50
2022-11-29T04:00:46.658Z,3.50
2022-11-29T04:03:32.439Z,3.50
2022-11-29T04:06:02.308Z,3.50
2022-11-29T04:08:47.897Z,3.50
2022-11-29T04:11:20.907Z,3.50
2022-11-29T04:14:01.832Z,3.50
2022-11-29T04:16:40.637Z,3.50
2022-11-29T04:19:26.008Z,3.50
2022-11-29T04:22:05.123Z,3.50
2022-11-29T04:24:35.115Z,3.50
2022-11-29T04:27:20.716Z,3.50
2022-11-29T04:29:47.523Z,3.50
2022-11-29T04:32:17.276Z,3.40
2022-11-29T04:34:59.174Z,3.40
2022-11-29T04:37:41.078Z,3.40
2022-11-29T04:40:13.957Z,3.30
2022-11-29T04:42:53.255Z,3.40
2022-11-29T04:45:38.871Z,3.40
2022-11-29T04:48:17.782Z,3.40
2022-11-29T04:50:59.986Z,3.40
2022-11-29T04:53:34.716Z,3.40
2022-11-29T04:56:01.492Z,3.30
2022-11-29T04:58:44.133Z,3.30
2022-11-29T05:01:13.850Z,3.40
2022-11-29T05:04:03.994Z,3.40
2022-11-29T05:06:43.026Z,3.40
2022-11-29T05:09:20.446Z,3.40
2022-11-29T05:12:05.969Z,3.30
2022-11-29T05:14:35.616Z,3.30
2022-11-29T05:17:17.648Z,3.40
2022-11-29T05:19:56.676Z,3.40
2022-11-29T05:22:26.619Z,3.40
2022-11-29T05:25:12.107Z,3.40
2022-11-29T05:27:46.043Z,3.40
2022-11-29T05:30:16.805Z,3.40
2022-11-29T05:33:22.282Z,3.40
2022-11-29T05:35:52.236Z,3.40
2022-11-29T05:38:37.509Z,3.50
2022-11-29T05:41:04.397Z,3.50
2022-11-29T05:43:37.196Z,3.50
2022-11-29T05:46:18.438Z,3.50
2022-11-29T05:49:03.992Z,3.40
2022-11-29T05:51:33.399Z,3.40
2022-11-29T05:54:22.846Z,3.40
2022-11-29T05:57:01.611Z,3.40
2022-11-29T05:59:29.409Z,3.30
2022-11-29T06:01:56.534Z,3.40
2022-11-29T06:04:29.183Z,3.40
2022-11-29T06:07:05.041Z,3.40
2022-11-29T06:09:58.048Z,3.40
2022-11-29T06:12:31.088Z,3.40
2022-11-29T06:15:10.541Z,3.40
2022-11-29T06:17:55.891Z,3.40
2022-11-29T06:20:23.592Z,3.40
2022-11-29T06:22:56.435Z,3.40
2022-11-29T06:25:43.467Z,3.40
2022-11-29T06:28:19.541Z,3.40
2022-11-29T06:30:53.231Z,3.40
2022-11-29T06:33:22.502Z,3.40
2022-11-29T06:35:49.456Z,3.40
2022-11-29T06:38:19.647Z,3.40
2022-11-29T06:40:46.742Z,3.40
2022-11-29T06:43:13.774Z,3.40
2022-11-29T06:45:42.989Z,3.30
2022-11-29T06:48:10.278Z,3.30
2022-11-29T06:50:53.521Z,3.30
2022-11-29T06:53:46.303Z,3.30
2022-11-29T06:56:21.606Z,3.30
2022-11-29T06:58:51.233Z,3.30
2022-11-29T07:01:22.931Z,3.30
2022-11-29T07:03:55.672Z,3.30
2022-11-29T07:06:24.090Z,3.30
2022-11-29T07:08:53.868Z,3.30
2022-11-29T07:11:20.933Z,3.30
2022-11-29T07:13:47.860Z,3.30
2022-11-29T07:16:26.275Z,3.40
2022-11-29T07:18:59.085Z,3.30
2022-11-29T07:21:45.984Z,3.30
2022-11-29T07:24:31.374Z,3.40
2022-11-29T07:26:59.734Z,3.40
2022-11-29T07:29:29.742Z,3.40
2022-11-29T07:32:04.734Z,3.40
2022-11-29T07:34:44.146Z,3.50
2022-11-29T07:37:18.765Z,3.50
2022-11-29T07:39:51.796Z,3.50
2022-11-29T07:42:31.779Z,3.50
2022-11-29T07:45:04.896Z,3.60
2022-11-29T07:47:35.707Z,3.60
2022-11-29T07:50:03.475Z,3.60
2022-11-29T07:52:30.361Z,3.60
2022-11-29T07:54:57.165Z,3.60
2022-11-29T07:57:23.977Z,3.70
2022-11-29T07:59:50.860Z,3.70
2022-11-29T08:02:27.840Z,3.70
2022-11-29T08:04:54.817Z,3.70
2022-11-29T08:07:21.995Z,3.70
2022-11-29T08:09:49.102Z,3.80
2022-11-29T08:12:16.187Z,3.80
2022-11-29T08:14:43.606Z,3.80
2022-11-29T08:17:10.768Z,3.80
2022-11-29T08:19:37.612Z,3.90
2022-11-29T08:22:04.495Z,3.90
2022-11-29T08:24:31.334Z,3.90
2022-11-29T08:26:58.237Z,4.00
2022-11-29T08:29:25.431Z,4.00
2022-11-29T08:31:55.844Z,4.00
2022-11-29T08:34:23.596Z,4.00
2022-11-29T08:36:50.803Z,4.00
2022-11-29T08:39:17.994Z,4.00
2022-11-29T08:41:44.822Z,4.00
2022-11-29T08:44:11.601Z,4.10
2022-11-29T08:46:56.986Z,4.10
2022-11-29T08:49:24.109Z,4.10
2022-11-29T08:52:13.933Z,4.10
2022-11-29T08:54:40.881Z,4.10
2022-11-29T08:57:38.560Z,4.10
2022-11-29T08:59:54.525Z,4.20
2022-11-29T09:02:21.644Z,4.20
2022-11-29T09:04:48.484Z,4.20
2022-11-29T09:07:16.227Z,4.20
2022-11-29T09:09:43.016Z,4.20
2022-11-29T09:12:09.875Z,4.30
2022-11-29T09:14:36.699Z,4.30
2022-11-29T09:17:03.492Z,4.30
2022-11-29T09:19:30.408Z,4.30
2022-11-29T09:21:57.246Z,4.30
2022-11-29T09:24:24.086Z,4.30
2022-11-29T09:26:50.881Z,4.30
2022-11-29T09:29:17.921Z,4.30
2022-11-29T09:31:47.595Z,4.30
2022-11-29T09:34:15.089Z,4.30
2022-11-29T09:36:44.233Z,4.30
2022-11-29T09:39:12.539Z,4.40
2022-11-29T09:41:48.912Z,4.40
2022-11-29T09:44:31.012Z,4.40
2022-11-29T09:47:16.496Z,4.40
2022-11-29T09:49:43.241Z,4.40
2022-11-29T09:52:28.687Z,4.40
2022-11-29T09:55:07.799Z,4.40
2022-11-29T09:57:34.724Z,4.40
2022-11-29T10:00:07.215Z,4.40
2022-11-29T10:02:45.655Z,4.40
2022-11-29T10:05:16.865Z,4.40
2022-11-29T10:07:45.630Z,4.50
2022-11-29T10:10:15.227Z,4.40
2022-11-29T10:13:02.017Z,4.40
2022-11-29T10:15:31.866Z,4.40
2022-11-29T10:18:03.551Z,4.40
2022-11-29T10:20:41.355Z,4.40
2022-11-29T10:23:10.344Z,4.40
2022-11-29T10:25:42.412Z,4.40
2022-11-29T10:28:13.012Z,4.50
2022-11-29T10:30:40.708Z,4.50
2022-11-29T10:33:16.040Z,4.40
2022-11-29T10:35:43.005Z,4.40
2022-11-29T10:38:30.393Z,4.40
2022-11-29T10:41:01.915Z,4.50
2022-11-29T10:43:28.877Z,4.50
2022-11-29T10:45:56.413Z,4.50
2022-11-29T10:48:25.246Z,4.50
2022-11-29T10:50:52.685Z,4.50
2022-11-29T10:53:22.843Z,4.50
2022-11-29T10:55:50.043Z,4.50
2022-11-29T10:58:28.020Z,4.50
2022-11-29T11:01:00.238Z,4.50
2022-11-29T11:03:36.419Z,4.50
2022-11-29T11:06:14.524Z,4.50
2022-11-29T11:09:04.590Z,4.50
2022-11-29T11:11:32.438Z,4.50
2022-11-29T11:14:00.513Z,4.50
2022-11-29T11:16:28.907Z,4.50
2022-11-29T11:18:58.568Z,4.50
2022-11-29T11:21:26.697Z,4.50
2022-11-29T11:23:55.559Z,4.50
2022-11-29T11:26:23.142Z,4.50
2022-11-29T11:28:51.720Z,4.50
2022-11-29T11:31:26.475Z,4.50
2022-11-29T11:33:53.349Z,4.50
2022-11-29T11:36:20.135Z,4.50
2022-11-29T11:38:51.832Z,4.60
2022-11-29T11:41:20.704Z,4.50
2022-11-29T11:43:58.728Z,4.60
2022-11-29T11:46:44.403Z,4.60
2022-11-29T11:49:23.926Z,4.60
2022-11-29T11:51:50.723Z,4.50
2022-11-29T11:54:17.537Z,4.60
2022-11-29T11:56:44.376Z,4.60
2022-11-29T11:59:20.543Z,4.60
2022-11-29T12:01:47.490Z,4.70
2022-11-29T12:04:22.526Z,4.70
2022-11-29T12:06:53.651Z,4.70
2022-11-29T12:09:39.597Z,4.70
2022-11-29T12:12:15.804Z,4.70
2022-11-29T12:14:46.103Z,4.70
2022-11-29T12:17:20.974Z,4.70
2022-11-29T12:20:03.089Z,4.70
2022-11-29T12:22:32.361Z,4.70
2022-11-29T12:25:02.238Z,4.70
2022-11-29T12:27:30.099Z,4.70
2022-11-29T12:29:56.901Z,4.70
2022-11-29T12:32:24.777Z,4.70
2022-11-29T12:35:27.266Z,4.70
2022-11-29T12:38:07.111Z,4.70
2022-11-29T12:40:39.927Z,4.70
2022-11-29T12:43:10.987Z,4.60
2022-11-29T12:45:37.808Z,4.70
2022-11-29T12:48:05.199Z,4.60
2022-11-29T12:50:32.220Z,4.60
2022-11-29T12:53:19.273Z,4.70
2022-11-29T12:55:49.520Z,4.70
2022-11-29T12:58:34.604Z,4.60
2022-11-29T13:01:19.745Z,4.70
2022-11-29T13:04:06.141Z,4.70
2022-11-29T13:06:54.533Z,4.70
2022-11-29T13:09:41.977Z,4.70
2022-11-29T13:12:21.084Z,4.70
2022-11-29T13:14:57.267Z,4.70
2022-11-29T13:17:30.869Z,4.70
2022-11-29T13:20:04.362Z,4.70
2022-11-29T13:22:31.345Z,4.70
2022-11-29T13:25:00.495Z,4.70
2022-11-29T13:27:27.407Z,4.70
2022-11-29T13:29:54.400Z,4.70
2022-11-29T13:32:44.577Z,4.70
2022-11-29T13:35:24.844Z,4.70
2022-11-29T13:37:55.610Z,4.80
2022-11-29T13:40:30.523Z,4.80
2022-11-29T13:43:18.197Z,4.80
2022-11-29T13:45:54.899Z,4.80
2022-11-29T13:48:36.925Z,4.70
2022-11-29T13:51:22.280Z,4.70
2022-11-29T13:53:49.583Z,4.70
2022-11-29T13:56:26.070Z,4.70
2022-11-29T13:58:54.331Z,4.70
2022-11-29T14:01:22.525Z,4.70
2022-11-29T14:04:09.597Z,4.70
2022-11-29T14:06:37.594Z,4.70
2022-11-29T14:09:25.400Z,4.70
2022-11-29T14:11:52.172Z,4.70
2022-11-29T14:14:31.569Z,4.70
2022-11-29T14:17:02.228Z,4.70
2022-11-29T14:19:33.723Z,4.70
2022-11-29T14:22:06.852Z,4.70
2022-11-29T14:24:36.654Z,4.80
2022-11-29T14:27:06.654Z,4.80
2022-11-29T14:29:52.897Z,4.80
2022-11-29T14:32:22.712Z,4.80
2022-11-29T14:34:55.821Z,4.80
2022-11-29T14:37:27.082Z,4.80
2022-11-29T14:39:55.060Z,4.80
2022-11-29T14:42:29.608Z,4.80
2022-11-29T14:45:07.051Z,4.80
2022-11-29T14:47:39.061Z,4.80
2022-11-29T14:50:09.318Z,4.80
2022-11-29T14:52:38.525Z,4.80
2022-11-29T14:55:27.984Z,4.80
2022-11-29T14:57:57.837Z,4.80
2022-11-29T15:00:29.349Z,4.70
2022-11-29T15:03:02.439Z,4.70
2022-11-29T15:05:33.460Z,4.80
2022-11-29T15:08:06.418Z,4.80
2022-11-29T15:10:35.515Z,4.80
2022-11-29T15:13:03.871Z,4.80
2022-11-29T15:15:49.684Z,4.80
2022-11-29T15:18:25.445Z,4.80
2022-11-29T15:21:14.647Z,4.80
2022-11-29T15:23:42.792Z,4.80
2022-11-29T15:26:17.917Z,4.80
2022-11-29T15:28:44.920Z,4.80
2022-11-29T15:31:14.589Z,4.80
2022-11-29T15:33:42.712Z,4.80
2022-11-29T15:36:14.944Z,4.80
2022-11-29T15:38:45.538Z,4.80
2022-11-29T15:41:18.930Z,4.70
2022-11-29T15:43:47.299Z,4.70
2022-11-29T15:46:21.627Z,4.70
2022-11-29T15:48:48.572Z,4.70
2022-11-29T15:51:33.082Z,4.70
2022-11-29T15:54:11.555Z,4.60
2022-11-29T15:57:00.700Z,4.60
2022-11-29T15:59:33.285Z,4.60
2022-11-29T16:02:03.538Z,4.60
2022-11-29T16:04:31.232Z,4.60
2022-11-29T16:06:58.258Z,4.60
2022-11-29T16:09:40.500Z,4.60
2022-11-29T16:12:14.558Z,4.60
2022-11-29T16:14:50.557Z,4.60
2022-11-29T16:17:18.725Z,4.50
2022-11-29T16:19:47.058Z,4.50
2022-11-29T16:22:16.446Z,4.50
2022-11-29T16:25:02.915Z,4.50
2022-11-29T16:27:31.566Z,4.50
2022-11-29T16:29:58.751Z,4.50
2022-11-29T16:32:33.150Z,4.50
2022-11-29T16:35:05.975Z,4.50
2022-11-29T16:37:38.025Z,4.50
2022-11-29T16:40:05.236Z,4.50
2022-11-29T16:42:33.637Z,4.50
2022-11-29T16:45:03.551Z,4.50
2022-11-29T16:47:31.480Z,4.40
2022-11-29T16:50:01.458Z,4.50
2022-11-29T16:52:32.274Z,4.50
2022-11-29T16:54:59.559Z,4.50
2022-11-29T16:57:27.337Z,4.50
2022-11-29T16:59:54.191Z,4.50
2022-11-29T17:02:21.693Z,4.40
2022-11-29T17:04:48.832Z,4.50
2022-11-29T17:07:18.612Z,4.40
2022-11-29T17:09:45.872Z,4.40
2022-11-29T17:12:13.397Z,4.40
2022-11-29T17:14:40.252Z,4.40
2022-11-29T17:17:07.135Z,4.40
2022-11-29T17:19:34.110Z,4.40
2022-11-29T17:22:01.139Z,4.40
2022-11-29T17:24:27.943Z,4.40
2022-11-29T17:26:54.981Z,4.40
2022-11-29T17:29:22.379Z,4.40
2022-11-29T17:31:53.297Z,4.40
2022-11-29T17:34:20.380Z,4.40
2022-11-29T17:36:47.334Z,4.40
2022-11-29T17:39:15.835Z,4.40
2022-11-29T17:41:42.639Z,4.40
2022-11-29T17:44:09.670Z,4.40
2022-11-29T17:46:36.779Z,4.40
2022-11-29T17:49:05.540Z,4.40
2022-11-29T17:54:19.551Z,4.40
2022-11-29T17:56:46.398Z,4.40
2022-11-29T17:59:13.221Z,4.50
2022-11-29T18:01:40.232Z,4.40
2022-11-29T18:04:08.437Z,4.40
2022-11-29T18:06:38.444Z,4.40
2022-11-29T18:09:06.384Z,4.40
2022-11-29T18:11:48.616Z,4.40
2022-11-29T18:14:23.953Z,4.50
2022-11-29T18:16:59.204Z,4.50
2022-11-29T18:19:26.085Z,4.50
2022-11-29T18:21:52.934Z,4.50
2022-11-29T18:24:19.753Z,4.50
2022-11-29T18:26:46.643Z,4.50
2022-11-29T18:29:13.657Z,4.50
2022-11-29T18:31:42.189Z,4.50
2022-11-29T18:34:09.979Z,4.40
2022-11-29T18:36:38.251Z,4.40
2022-11-29T18:39:08.727Z,4.50
2022-11-29T18:41:35.976Z,4.40
2022-11-29T18:44:13.172Z,4.50
2022-11-29T18:46:41.245Z,4.40
2022-11-29T18:49:09.071Z,4.40
2022-11-29T18:51:36.552Z,4.40
2022-11-29T18:54:03.881Z,4.50
2022-11-29T18:56:31.773Z,4.50
2022-11-29T18:58:59.922Z,4.50
2022-11-29T19:01:28.171Z,4.50
2022-11-29T19:03:55.878Z,4.50
2022-11-29T19:06:24.093Z,4.50
2022-11-29T19:08:51.702Z,4.50
2022-11-29T19:11:20.497Z,4.50
2022-11-29T19:13:47.897Z,4.50
2022-11-29T19:16:16.107Z,4.50
2022-11-29T19:18:43.068Z,4.50
2022-11-29T19:21:14.472Z,4.50
2022-11-29T19:23:42.264Z,4.50
2022-11-29T19:26:10.360Z,4.50
2022-11-29T19:28:41.581Z,4.50
2022-11-29T19:31:09.067Z,4.50
2022-11-29T19:33:36.780Z,4.50
2022-11-29T19:36:12.073Z,4.50
2022-11-29T19:38:39.066Z,4.50
2022-11-29T19:41:09.157Z,4.40
2022-11-29T19:43:36.113Z,4.40
2022-11-29T19:46:07.115Z,4.40
2022-11-29T19:48:33.993Z,4.40
2022-11-29T19:51:00.980Z,4.40
2022-11-29T19:53:27.869Z,4.50
2022-11-29T19:55:54.773Z,4.50
2022-11-29T19:58:21.703Z,4.50
2022-11-29T20:00:48.563Z,4.50
2022-11-29T20:03:15.567Z,4.50
2022-11-29T20:05:42.419Z,4.50
2022-11-29T20:08:09.358Z,4.60
2022-11-29T20:10:36.257Z,4.60
2022-11-29T20:13:03.181Z,4.60
2022-11-29T20:15:30.310Z,4.50
2022-11-29T20:17:57.273Z,4.50
2022-11-29T20:20:24.186Z,4.60
2022-11-29T20:22:52.330Z,4.60
2022-11-29T20:25:19.149Z,4.60
2022-11-29T20:27:46.019Z,4.50
2022-11-29T20:30:13.273Z,4.60
2022-11-29T20:32:40.175Z,4.60
2022-11-29T20:35:07.207Z,4.50
2022-11-29T20:37:39.674Z,4.50
2022-11-29T20:40:11.670Z,4.60
2022-11-29T20:42:50.695Z,4.60
2022-11-29T20:45:17.780Z,4.60
2022-11-29T20:47:50.424Z,4.60
2022-11-29T20:50:23.702Z,4.50
2022-11-29T20:52:56.826Z,4.60
2022-11-29T20:55:23.784Z,4.50
2022-11-29T20:57:50.781Z,4.60
2022-11-29T21:00:18.395Z,4.60
2022-11-29T21:02:45.357Z,4.60
2022-11-29T21:05:12.219Z,4.60
2022-11-29T21:07:39.055Z,4.60
2022-11-29T21:10:06.258Z,4.60
2022-11-29T21:12:33.201Z,4.60
2022-11-29T21:15:00.208Z,4.70
2022-11-29T21:17:33.148Z,4.70
2022-11-29T21:20:01.089Z,4.70
2022-11-29T21:22:31.691Z,4.60
2022-11-29T21:25:05.555Z,4.60
2022-11-29T21:27:33.692Z,4.60
2022-11-29T21:30:01.194Z,4.60
2022-11-29T21:32:28.188Z,4.60
2022-11-29T21:34:55.410Z,4.60
2022-11-29T21:37:25.232Z,4.60
2022-11-29T21:39:53.144Z,4.60
2022-11-29T21:42:20.288Z,4.60
2022-11-29T21:44:47.410Z,4.70
2022-11-29T21:47:14.493Z,4.60
2022-11-29T21:49:41.384Z,4.70
2022-11-29T21:52:08.375Z,4.70
2022-11-29T21:54:35.195Z,4.70
2022-11-29T21:57:02.203Z,4.70
2022-11-29T21:59:29.113Z,4.60
2022-11-29T22:01:56.209Z,4.70
2022-11-29T22:04:23.337Z,4.70
2022-11-29T22:06:50.187Z,4.70
2022-11-29T22:09:17.128Z,4.70
2022-11-29T22:11:43.917Z,4.70
2022-11-29T22:14:15.074Z,4.70
2022-11-29T22:16:47.905Z,4.70
2022-11-29T22:19:20.754Z,4.70
2022-11-29T22:21:49.171Z,4.70
2022-11-29T22:24:16.834Z,4.70
2022-11-29T22:26:44.199Z,4.60
2022-11-29T22:29:11.674Z,4.60
2022-11-29T22:31:38.591Z,4.60
2022-11-29T22:34:05.539Z,4.60
2022-11-29T22:36:33.103Z,4.60
2022-11-29T22:39:00.074Z,4.60
2022-11-29T22:41:26.947Z,4.60
2022-11-29T22:43:53.962Z,4.50
2022-11-29T22:46:22.064Z,4.50
2022-11-29T22:48:50.817Z,4.50
2022-11-29T22:51:19.013Z,4.50
2022-11-29T22:53:50.189Z,4.50
2022-11-29T22:56:17.546Z,4.50
2022-11-29T22:58:44.721Z,4.50
2022-11-29T23:01:13.863Z,4.50
2022-11-29T23:03:41.996Z,4.50
2022-11-29T23:06:10.140Z,4.50
2022-11-29T23:08:37.282Z,4.50
2022-11-29T23:11:04.739Z,4.50
2022-11-29T23:13:32.435Z,4.50
2022-11-29T23:15:59.282Z,4.50
2022-11-29T23:18:26.201Z,4.50
2022-11-29T23:20:53.069Z,4.50
2022-11-29T23:23:20.075Z,4.50
2022-11-29T23:25:50.585Z,4.50
2022-11-29T23:28:17.458Z,4.50
2022-11-29T23:30:44.653Z,4.50
2022-11-29T23:33:11.506Z,4.50
2022-11-29T23:35:38.410Z,4.50
2022-11-29T23:38:05.904Z,4.40
2022-11-29T23:40:33.272Z,4.50
2022-11-29T23:43:00.267Z,4.50
2022-11-29T23:45:27.331Z,4.50
2022-11-29T23:47:54.249Z,4.50
2022-11-29T23:50:21.157Z,4.50
2022-11-29T23:52:57.242Z,4.50
2022-11-29T23:55:26.390Z,4.50
2022-11-29T23:57:53.249Z,4.50
